Nyk Constellation — V7NP4 — position and weather

sailwx.info

Track history (hours):
 
Tides and Currents Weather Stations Pressure Air Temp Water Temp Dewpoint Dewpoint Depression Visibility Wind Speed Wind Dir Waves Ship Positions

Nyk Constellation

Last reported at 2014-Aug-31 10:26 UTC. Time now 2014-Aug-31 10:37 UTC.
Position N 50°03' W 012°00'.

Length 294 m; draft 10.3 m.

Type: Cargo ship. MMSI: 538002992.

Date/timePositionNaut miles runAvg speedWind from/ knotsBaromVisibWave heightAir tempDewpointWater temp
2014-Aug-31 10:26N 50°03' W 012°00'  
2014-Aug-26 06:06N 44°26' W 062°40'1414.0
2014-Aug-26 05:04N 44°23' W 063°00'714.4
2014-Aug-26 04:33N 44°24' W 063°11'1413.8
2014-Aug-26 03:33N 44°27' W 063°29'1010.6
2014-Aug-26 02:33N 44°37' W 063°33'4 3.8
2014-Aug-26 01:26N 44°40' W 063°38'0 0.0
2014-Aug-26 00:29N 44°40' W 063°38'0 0.0
2014-Aug-25 23:23N 44°40' W 063°38'0 0.0
2014-Aug-25 22:17N 44°40' W 063°38'0 0.0
2014-Aug-25 21:29N 44°40' W 063°38'0 0.0
2014-Aug-25 20:32N 44°40' W 063°38'0 0.0
2014-Aug-25 19:29N 44°40' W 063°38'0 0.0
2014-Aug-25 18:29N 44°40' W 063°38'0 0.0
2014-Aug-25 17:20N 44°40' W 063°38'0 0.0
2014-Aug-25 16:30N 44°40' W 063°38'2 1.6
2014-Aug-25 15:33N 44°40' W 063°36'9 9.5
2014-Aug-25 14:33N 44°31' W 063°30'1010.5
2014-Aug-25 13:33N 44°22' W 063°23'27618.4
2014-Aug-24 22:33N 40°57' W 067°35'1818.6
2014-Aug-24 21:33N 40°48' W 067°56'1818.4
2014-Aug-24 20:33N 40°38' W 068°17'1818.5
2014-Aug-24 19:33N 40°29' W 068°38'1919.0
2014-Aug-24 18:33N 40°28' W 069°03'1919.1
2014-Aug-24 17:33N 40°27' W 069°28'1919.1
2014-Aug-24 16:33N 40°26' W 069°53'1918.7
2014-Aug-24 15:33N 40°25' W 070°17'1918.8
2014-Aug-24 14:33N 40°25' W 070°42'1919.1
2014-Aug-24 13:33N 40°25' W 071°07'1918.9
2014-Aug-24 12:33N 40°24' W 071°32'1919.2
2014-Aug-24 11:33N 40°23' W 071°57'2019.5
2014-Aug-24 10:33N 40°22' W 072°23'1919.4
2014-Aug-24 09:33N 40°22' W 072°48'1918.9
2014-Aug-24 08:33N 40°22' W 073°13'1919.0
2014-Aug-24 07:33N 40°25' W 073°37'1111.4
2014-Aug-24 06:34N 40°28' W 073°52'1211.6
2014-Aug-24 05:33N 40°36' W 074°03'6 5.6
2014-Aug-24 04:33N 40°39' W 074°09'1 1.3
2014-Aug-24 03:31N 40°39' W 074°11'0 0.0
2014-Aug-24 02:31N 40°39' W 074°11'0 0.0
2014-Aug-24 01:28N 40°39' W 074°11'0 0.0
2014-Aug-24 00:31N 40°39' W 074°11'0 0.0
2014-Aug-23 23:31N 40°39' W 074°11'0 0.0
2014-Aug-23 22:31N 40°39' W 074°11'0 0.0
2014-Aug-23 21:28N 40°39' W 074°11'0 0.0
2014-Aug-23 20:28N 40°39' W 074°11'0 0.0
2014-Aug-23 19:31N 40°39' W 074°11'122 7.5
2014-Aug-23 03:15N 38°37' W 074°02'811.3
2014-Aug-23 02:32N 38°29' W 074°05'1010.8
2014-Aug-23 01:33N 38°19' W 074°08'10511.1
2014-Aug-22 16:06N 36°53' W 075°25'1119.3
2014-Aug-22 15:32N 36°49' W 075°38'1817.4
2014-Aug-22 14:32N 36°56' W 075°58'18 8.4
2014-Aug-22 12:26N 36°56' W 076°20'0 0.0
2014-Aug-22 11:20N 36°56' W 076°20'0 0.0
2014-Aug-22 10:26N 36°56' W 076°20'0 0.0
2014-Aug-22 04:29N 36°56' W 076°20'0 0.4
2014-Aug-22 03:33N 36°56' W 076°20'7 7.1
2014-Aug-22 02:33N 37°00' W 076°13'1313.0
2014-Aug-22 01:33N 36°57' W 075°58'1512.7
2014-Aug-22 00:21N 36°48' W 075°42'1 0.1
2014-Aug-21 18:26N 36°49' W 075°42'6 6.6
2014-Aug-21 17:33N 36°43' W 075°39'49 9.4
2014-Aug-21 12:21N 36°00' W 075°10'8 9.6
2014-Aug-21 11:33N 35°53' W 075°10'1010.4
2014-Aug-21 10:33N 35°42' W 075°10'1111.5
2014-Aug-21 09:33N 35°31' W 075°10'1312.6
2014-Aug-21 08:33N 35°18' W 075°10'1413.8
2014-Aug-21 07:33N 35°04' W 075°10'4212.8
2014-Aug-21 04:17N 34°34' W 075°46'912.0
2014-Aug-21 03:31N 34°28' W 075°54'1211.9
2014-Aug-21 02:31N 34°20' W 076°05'2711.9
2014-Aug-21 00:13N 34°03' W 076°30'812.3
2014-Aug-20 23:33N 33°57' W 076°37'1512.3
2014-Aug-20 22:19N 33°47' W 076°51'23311.2
2014-Aug-20 01:32N 32°06' W 081°01'6 6.2
2014-Aug-20 00:32N 32°08' W 081°08'0 0.4
2014-Aug-19 23:16N 32°07' W 081°08'0 0.0
2014-Aug-19 22:33N 32°07' W 081°08'0 0.0
2014-Aug-19 21:11N 32°07' W 081°08'0 0.0
2014-Aug-19 20:31N 32°07' W 081°08'0 0.0
2014-Aug-19 19:27N 32°07' W 081°08'0 0.0
2014-Aug-19 18:30N 32°07' W 081°08'0 0.0
2014-Aug-19 17:33N 32°07' W 081°08'0 0.0
2014-Aug-19 16:33N 32°07' W 081°08'0 0.0
2014-Aug-19 15:32N 32°07' W 081°08'0 0.0
2014-Aug-19 14:33N 32°07' W 081°08'0 0.0
2014-Aug-19 13:25N 32°07' W 081°08'0 0.0
2014-Aug-19 12:29N 32°07' W 081°08'4 3.3
2014-Aug-19 11:24N 32°05' W 081°05'  
Track history (hours):
 
Tides and Currents Weather Stations Pressure Air Temp Water Temp Dewpoint Dewpoint Depression Visibility Wind Speed Wind Dir Waves Ship Positions

Nyk Constellation

Last reported at 2014-Aug-31 10:26 UTC. Time now 2014-Aug-31 10:37 UTC.
Position N 50°03' W 012°00'.

Length 294 m; draft 10.3 m.

Type: Cargo ship. MMSI: 538002992.

Date/timePositionNaut miles runAvg speedWind from/ knotsBaromVisibWave heightAir tempDewpointWater temp
2014-Aug-31 10:26N 50°03' W 012°00'  
2014-Aug-26 06:06N 44°26' W 062°40'1414.0
2014-Aug-26 05:04N 44°23' W 063°00'714.4
2014-Aug-26 04:33N 44°24' W 063°11'1413.8
2014-Aug-26 03:33N 44°27' W 063°29'1010.6
2014-Aug-26 02:33N 44°37' W 063°33'4 3.8
2014-Aug-26 01:26N 44°40' W 063°38'0 0.0
2014-Aug-26 00:29N 44°40' W 063°38'0 0.0
2014-Aug-25 23:23N 44°40' W 063°38'0 0.0
2014-Aug-25 22:17N 44°40' W 063°38'0 0.0
2014-Aug-25 21:29N 44°40' W 063°38'0 0.0
2014-Aug-25 20:32N 44°40' W 063°38'0 0.0
2014-Aug-25 19:29N 44°40' W 063°38'0 0.0
2014-Aug-25 18:29N 44°40' W 063°38'0 0.0
2014-Aug-25 17:20N 44°40' W 063°38'0 0.0
2014-Aug-25 16:30N 44°40' W 063°38'2 1.6
2014-Aug-25 15:33N 44°40' W 063°36'9 9.5
2014-Aug-25 14:33N 44°31' W 063°30'1010.5
2014-Aug-25 13:33N 44°22' W 063°23'27618.4
2014-Aug-24 22:33N 40°57' W 067°35'1818.6
2014-Aug-24 21:33N 40°48' W 067°56'1818.4
2014-Aug-24 20:33N 40°38' W 068°17'1818.5
2014-Aug-24 19:33N 40°29' W 068°38'1919.0
2014-Aug-24 18:33N 40°28' W 069°03'1919.1
2014-Aug-24 17:33N 40°27' W 069°28'1919.1
2014-Aug-24 16:33N 40°26' W 069°53'1918.7
2014-Aug-24 15:33N 40°25' W 070°17'1918.8
2014-Aug-24 14:33N 40°25' W 070°42'1919.1
2014-Aug-24 13:33N 40°25' W 071°07'1918.9
2014-Aug-24 12:33N 40°24' W 071°32'1919.2
2014-Aug-24 11:33N 40°23' W 071°57'2019.5
2014-Aug-24 10:33N 40°22' W 072°23'1919.4
2014-Aug-24 09:33N 40°22' W 072°48'1918.9
2014-Aug-24 08:33N 40°22' W 073°13'1919.0
2014-Aug-24 07:33N 40°25' W 073°37'1111.4
2014-Aug-24 06:34N 40°28' W 073°52'1211.6
2014-Aug-24 05:33N 40°36' W 074°03'6 5.6
2014-Aug-24 04:33N 40°39' W 074°09'1 1.3
2014-Aug-24 03:31N 40°39' W 074°11'0 0.0
2014-Aug-24 02:31N 40°39' W 074°11'0 0.0
2014-Aug-24 01:28N 40°39' W 074°11'0 0.0
2014-Aug-24 00:31N 40°39' W 074°11'0 0.0
2014-Aug-23 23:31N 40°39' W 074°11'0 0.0
2014-Aug-23 22:31N 40°39' W 074°11'0 0.0
2014-Aug-23 21:28N 40°39' W 074°11'0 0.0
2014-Aug-23 20:28N 40°39' W 074°11'0 0.0
2014-Aug-23 19:31N 40°39' W 074°11'122 7.5
2014-Aug-23 03:15N 38°37' W 074°02'811.3
2014-Aug-23 02:32N 38°29' W 074°05'1010.8
2014-Aug-23 01:33N 38°19' W 074°08'10511.1
2014-Aug-22 16:06N 36°53' W 075°25'1119.3
2014-Aug-22 15:32N 36°49' W 075°38'1817.4
2014-Aug-22 14:32N 36°56' W 075°58'18 8.4
2014-Aug-22 12:26N 36°56' W 076°20'0 0.0
2014-Aug-22 11:20N 36°56' W 076°20'0 0.0
2014-Aug-22 10:26N 36°56' W 076°20'0 0.0
2014-Aug-22 04:29N 36°56' W 076°20'0 0.4
2014-Aug-22 03:33N 36°56' W 076°20'7 7.1
2014-Aug-22 02:33N 37°00' W 076°13'1313.0
2014-Aug-22 01:33N 36°57' W 075°58'1512.7
2014-Aug-22 00:21N 36°48' W 075°42'1 0.1
2014-Aug-21 18:26N 36°49' W 075°42'6 6.6
2014-Aug-21 17:33N 36°43' W 075°39'49 9.4
2014-Aug-21 12:21N 36°00' W 075°10'8 9.6
2014-Aug-21 11:33N 35°53' W 075°10'1010.4
2014-Aug-21 10:33N 35°42' W 075°10'1111.5
2014-Aug-21 09:33N 35°31' W 075°10'1312.6
2014-Aug-21 08:33N 35°18' W 075°10'1413.8
2014-Aug-21 07:33N 35°04' W 075°10'4212.8
2014-Aug-21 04:17N 34°34' W 075°46'912.0
2014-Aug-21 03:31N 34°28' W 075°54'1211.9
2014-Aug-21 02:31N 34°20' W 076°05'2711.9
2014-Aug-21 00:13N 34°03' W 076°30'812.3
2014-Aug-20 23:33N 33°57' W 076°37'1512.3
2014-Aug-20 22:19N 33°47' W 076°51'23311.2
2014-Aug-20 01:32N 32°06' W 081°01'6 6.2
2014-Aug-20 00:32N 32°08' W 081°08'0 0.4
2014-Aug-19 23:16N 32°07' W 081°08'0 0.0
2014-Aug-19 22:33N 32°07' W 081°08'0 0.0
2014-Aug-19 21:11N 32°07' W 081°08'0 0.0
2014-Aug-19 20:31N 32°07' W 081°08'0 0.0
2014-Aug-19 19:27N 32°07' W 081°08'0 0.0
2014-Aug-19 18:30N 32°07' W 081°08'0 0.0
2014-Aug-19 17:33N 32°07' W 081°08'0 0.0
2014-Aug-19 16:33N 32°07' W 081°08'0 0.0
2014-Aug-19 15:32N 32°07' W 081°08'0 0.0
2014-Aug-19 14:33N 32°07' W 081°08'0 0.0
2014-Aug-19 13:25N 32°07' W 081°08'0 0.0
2014-Aug-19 12:29N 32°07' W 081°08'4 3.3
2014-Aug-19 11:24N 32°05' W 081°05'  

Dump ship's entire track history